United Spirit — ELYB2 — position and weather

sailwx.info

Track history (hours):
 
Tides and Currents Weather Stations Pressure Air Temp Water Temp Dewpoint Dewpoint Depression Visibility Wind Speed Wind Dir Waves Ship Positions

United Spirit

Last reported at 2015-Mar-01 08:33 UTC. Time now 2015-Mar-31 15:28 UTC.
Position S 32°36' E 152°59'.
Warning: this ship's position is 30 days out of date.

Type: Cargo ship. MMSI: 636011280.

Date/timePositionNaut miles runAvg speedWind from/ knotsBaromVisibWave heightAir tempDewpointWater temp
2015-Mar-01 08:33S 32°36' E 152°59'1615.5
2015-Mar-01 07:31S 32°48' E 152°46'1515.3
2015-Mar-01 06:33S 32°58' E 152°34'1515.3
2015-Mar-01 05:33S 33°09' E 152°21'1615.6
2015-Mar-01 04:33S 33°21' E 152°09'91 4.7
2015-Feb-28 09:15S 34°28' E 150°54'4 4.7
2015-Feb-28 08:27S 34°28' E 150°59'9 7.8
2015-Feb-28 07:20S 34°37' E 151°01'6 7.6
2015-Feb-28 06:29S 34°43' E 151°02'1815.0
2015-Feb-28 05:18S 35°01' E 151°01'13615.6
2015-Feb-27 20:33S 37°13' E 150°17'1615.3
2015-Feb-27 19:31S 37°28' E 150°10'1515.9
2015-Feb-27 18:33S 37°42' E 150°04'1715.5
2015-Feb-27 17:27S 37°53' E 149°47'1916.6
2015-Feb-27 16:18S 38°05' E 149°28'1616.1
2015-Feb-27 15:18S 38°14' E 149°11'1616.5
2015-Feb-27 14:19S 38°24' E 148°55'1516.4
2015-Feb-27 13:25S 38°33' E 148°40'1716.8
2015-Feb-27 12:25S 38°43' E 148°23'1617.6
2015-Feb-27 11:30S 38°50' E 148°04'2217.8
2015-Feb-27 10:17S 38°58' E 147°38'1617.4
2015-Feb-27 09:21S 39°03' E 147°19'1417.1
2015-Feb-27 08:33S 39°08' E 147°02'1716.6
2015-Feb-27 07:33S 39°13' E 146°42'1616.4
2015-Feb-27 06:33S 39°17' E 146°22'1616.4
2015-Feb-27 05:33S 39°11' E 146°02'1817.2
2015-Feb-27 04:31S 39°01' E 145°43'107 3.8
2015-Feb-26 00:24S 38°59' E 143°25'1416.4
2015-Feb-25 23:31S 38°55' E 143°08'1616.6
2015-Feb-25 22:33S 38°50' E 142°47'1716.8
2015-Feb-25 21:33S 38°45' E 142°27'1817.3
2015-Feb-25 20:32S 38°40' E 142°06'1817.5
2015-Feb-25 19:32S 38°36' E 141°44'2217.7
2015-Feb-25 18:18S 38°28' E 141°17'1517.4
2015-Feb-25 17:27S 38°23' E 141°00'22616.2
2015-Feb-25 03:33S 35°25' E 138°06'37 2.3
2015-Feb-24 11:26S 34°49' E 138°18'0 0.1
2015-Feb-24 10:26S 34°49' E 138°18'6 1.5
2015-Feb-24 06:33S 34°55' E 138°15'1615.9
2015-Feb-24 05:33S 35°09' E 138°07'  
2015-Feb-20 21:19S 32°03' E 115°23'1114.1
2015-Feb-20 20:33S 31°57' E 115°34'1110.6
2015-Feb-20 19:33S 32°03' E 115°44'1 1.3
2015-Feb-20 18:32S 32°03' E 115°45'0 0.0
2015-Feb-20 17:32S 32°03' E 115°45'0 0.0
2015-Feb-20 16:32S 32°03' E 115°45'0 0.0
2015-Feb-20 15:32S 32°03' E 115°45'0 0.0
2015-Feb-20 14:32S 32°03' E 115°45'0 0.0
2015-Feb-20 13:32S 32°03' E 115°45'0 0.0
2015-Feb-20 12:32S 32°03' E 115°45'0 0.0
2015-Feb-20 11:32S 32°03' E 115°45'0 0.0
2015-Feb-20 10:32S 32°03' E 115°45'0 0.0
2015-Feb-20 09:32S 32°03' E 115°45'0 0.0
2015-Feb-20 08:32S 32°03' E 115°45'0 0.0
2015-Feb-20 07:32S 32°03' E 115°45'0 0.0
2015-Feb-20 06:32S 32°03' E 115°45'0 0.0
2015-Feb-20 05:32S 32°03' E 115°45'0 0.0
2015-Feb-20 04:32S 32°03' E 115°45'0 0.0
2015-Feb-20 03:32S 32°03' E 115°45'0 0.0
2015-Feb-20 02:32S 32°03' E 115°45'0 0.1
2015-Feb-20 01:33S 32°03' E 115°45'5 5.3
2015-Feb-20 00:33S 31°58' E 115°41'9 9.4
2015-Feb-19 23:33S 31°52' E 115°33'12912.4
2015-Feb-19 13:10S 30°02' E 114°13'915.0
2015-Feb-19 12:33S 29°55' E 114°07'1915.2
2015-Feb-19 11:16S 29°38' E 113°56'1115.6
2015-Feb-19 10:33S 29°28' E 113°49'1615.8
2015-Feb-19 09:34S 29°15' E 113°40'1615.7
2015-Feb-19 08:34S 29°00' E 113°33'  
Track history (hours):
 
Tides and Currents Weather Stations Pressure Air Temp Water Temp Dewpoint Dewpoint Depression Visibility Wind Speed Wind Dir Waves Ship Positions

United Spirit

Last reported at 2015-Mar-01 08:33 UTC. Time now 2015-Mar-31 15:28 UTC.
Position S 32°36' E 152°59'.
Warning: this ship's position is 30 days out of date.

Type: Cargo ship. MMSI: 636011280.

Date/timePositionNaut miles runAvg speedWind from/ knotsBaromVisibWave heightAir tempDewpointWater temp
2015-Mar-01 08:33S 32°36' E 152°59'1615.5
2015-Mar-01 07:31S 32°48' E 152°46'1515.3
2015-Mar-01 06:33S 32°58' E 152°34'1515.3
2015-Mar-01 05:33S 33°09' E 152°21'1615.6
2015-Mar-01 04:33S 33°21' E 152°09'91 4.7
2015-Feb-28 09:15S 34°28' E 150°54'4 4.7
2015-Feb-28 08:27S 34°28' E 150°59'9 7.8
2015-Feb-28 07:20S 34°37' E 151°01'6 7.6
2015-Feb-28 06:29S 34°43' E 151°02'1815.0
2015-Feb-28 05:18S 35°01' E 151°01'13615.6
2015-Feb-27 20:33S 37°13' E 150°17'1615.3
2015-Feb-27 19:31S 37°28' E 150°10'1515.9
2015-Feb-27 18:33S 37°42' E 150°04'1715.5
2015-Feb-27 17:27S 37°53' E 149°47'1916.6
2015-Feb-27 16:18S 38°05' E 149°28'1616.1
2015-Feb-27 15:18S 38°14' E 149°11'1616.5
2015-Feb-27 14:19S 38°24' E 148°55'1516.4
2015-Feb-27 13:25S 38°33' E 148°40'1716.8
2015-Feb-27 12:25S 38°43' E 148°23'1617.6
2015-Feb-27 11:30S 38°50' E 148°04'2217.8
2015-Feb-27 10:17S 38°58' E 147°38'1617.4
2015-Feb-27 09:21S 39°03' E 147°19'1417.1
2015-Feb-27 08:33S 39°08' E 147°02'1716.6
2015-Feb-27 07:33S 39°13' E 146°42'1616.4
2015-Feb-27 06:33S 39°17' E 146°22'1616.4
2015-Feb-27 05:33S 39°11' E 146°02'1817.2
2015-Feb-27 04:31S 39°01' E 145°43'107 3.8
2015-Feb-26 00:24S 38°59' E 143°25'1416.4
2015-Feb-25 23:31S 38°55' E 143°08'1616.6
2015-Feb-25 22:33S 38°50' E 142°47'1716.8
2015-Feb-25 21:33S 38°45' E 142°27'1817.3
2015-Feb-25 20:32S 38°40' E 142°06'1817.5
2015-Feb-25 19:32S 38°36' E 141°44'2217.7
2015-Feb-25 18:18S 38°28' E 141°17'1517.4
2015-Feb-25 17:27S 38°23' E 141°00'22616.2
2015-Feb-25 03:33S 35°25' E 138°06'37 2.3
2015-Feb-24 11:26S 34°49' E 138°18'0 0.1
2015-Feb-24 10:26S 34°49' E 138°18'6 1.5
2015-Feb-24 06:33S 34°55' E 138°15'1615.9
2015-Feb-24 05:33S 35°09' E 138°07'  
2015-Feb-20 21:19S 32°03' E 115°23'1114.1
2015-Feb-20 20:33S 31°57' E 115°34'1110.6
2015-Feb-20 19:33S 32°03' E 115°44'1 1.3
2015-Feb-20 18:32S 32°03' E 115°45'0 0.0
2015-Feb-20 17:32S 32°03' E 115°45'0 0.0
2015-Feb-20 16:32S 32°03' E 115°45'0 0.0
2015-Feb-20 15:32S 32°03' E 115°45'0 0.0
2015-Feb-20 14:32S 32°03' E 115°45'0 0.0
2015-Feb-20 13:32S 32°03' E 115°45'0 0.0
2015-Feb-20 12:32S 32°03' E 115°45'0 0.0
2015-Feb-20 11:32S 32°03' E 115°45'0 0.0
2015-Feb-20 10:32S 32°03' E 115°45'0 0.0
2015-Feb-20 09:32S 32°03' E 115°45'0 0.0
2015-Feb-20 08:32S 32°03' E 115°45'0 0.0
2015-Feb-20 07:32S 32°03' E 115°45'0 0.0
2015-Feb-20 06:32S 32°03' E 115°45'0 0.0
2015-Feb-20 05:32S 32°03' E 115°45'0 0.0
2015-Feb-20 04:32S 32°03' E 115°45'0 0.0
2015-Feb-20 03:32S 32°03' E 115°45'0 0.0
2015-Feb-20 02:32S 32°03' E 115°45'0 0.1
2015-Feb-20 01:33S 32°03' E 115°45'5 5.3
2015-Feb-20 00:33S 31°58' E 115°41'9 9.4
2015-Feb-19 23:33S 31°52' E 115°33'12912.4
2015-Feb-19 13:10S 30°02' E 114°13'915.0
2015-Feb-19 12:33S 29°55' E 114°07'1915.2
2015-Feb-19 11:16S 29°38' E 113°56'1115.6
2015-Feb-19 10:33S 29°28' E 113°49'1615.8
2015-Feb-19 09:34S 29°15' E 113°40'1615.7
2015-Feb-19 08:34S 29°00' E 113°33'  

Dump ship's entire track history